Time;durP1;ratioP1;P1;durP2;ratioP2;P2;SDS_P1;SDS_P2;PMS_P1;PMS_P2;Temp;Humidity;BMP_temperature;BMP_pressure;BME280_temperature;BME280_humidity;BME280_pressure;Samples;Min_cycle;Max_cycle;Signal;HPM_P1;HPM_P2
2024/03/19 00:01:59;;;;;;;15.35;10.93;;;7.90;99.90;;;;;;5012692;28;20045;-72
2024/03/19 00:04:25;;;;;;;21.67;14.10;;;7.80;99.90;;;;;;4996162;28;20034;-71
2024/03/19 00:06:51;;;;;;;24.52;18.38;;;7.80;99.90;;;;;;4996064;28;20443;-71
2024/03/19 00:09:17;;;;;;;25.63;16.83;;;7.80;99.90;;;;;;5012311;28;20045;-72
2024/03/19 00:11:44;;;;;;;21.23;13.63;;;7.80;99.90;;;;;;4995655;28;20510;-71
2024/03/19 00:14:10;;;;;;;18.77;13.75;;;7.80;99.90;;;;;;5012196;28;20452;-71
2024/03/19 00:16:36;;;;;;;18.42;11.23;;;7.80;99.90;;;;;;5011952;28;20042;-71
2024/03/19 00:19:02;;;;;;;21.23;14.18;;;7.70;99.90;;;;;;4995940;28;20054;-71
2024/03/19 00:21:28;;;;;;;22.73;13.02;;;7.70;99.90;;;;;;4995594;28;20042;-71
2024/03/19 00:23:54;;;;;;;20.50;13.65;;;7.60;99.90;;;;;;4979554;28;20112;-71
2024/03/19 00:26:21;;;;;;;24.02;15.75;;;7.70;99.90;;;;;;4979556;28;20140;-71
2024/03/19 00:28:47;;;;;;;25.83;16.70;;;7.50;99.90;;;;;;4995911;28;20045;-71
2024/03/19 00:31:14;;;;;;;10.63;7.88;;;7.40;99.90;;;;;;5012036;28;20492;-71
2024/03/19 00:33:40;;;;;;;13.07;9.27;;;7.40;99.90;;;;;;5011730;28;20038;-71
2024/03/19 00:36:08;;;;;;;14.05;10.13;;;7.30;99.90;;;;;;5011831;28;20038;-71
2024/03/19 00:38:34;;;;;;;18.73;15.65;;;7.30;99.90;;;;;;4995304;28;20404;-71
2024/03/19 00:41:00;;;;;;;16.52;11.00;;;7.20;99.90;;;;;;4979211;28;20069;-71
2024/03/19 00:43:26;;;;;;;19.00;13.00;;;7.10;99.90;;;;;;5011714;28;20042;-71
2024/03/19 00:45:53;;;;;;;19.67;12.88;;;7.10;99.90;;;;;;4995202;28;20053;-71
2024/03/19 00:48:19;;;;;;;20.63;14.50;;;7.00;99.90;;;;;;5011710;28;20095;-71
2024/03/19 00:50:45;;;;;;;18.27;12.00;;;7.00;99.90;;;;;;4995084;28;20104;-71
2024/03/19 00:53:12;;;;;;;15.70;12.10;;;6.80;99.90;;;;;;5011661;28;20042;-71
2024/03/19 00:55:38;;;;;;;20.92;14.40;;;6.80;99.90;;;;;;5011394;28;20045;-71
2024/03/19 00:58:04;;;;;;;18.58;12.10;;;6.80;99.90;;;;;;4995423;28;20040;-71
2024/03/19 01:00:30;;;;;;;17.05;11.43;;;6.70;99.90;;;;;;4995373;28;20046;-71
2024/03/19 01:02:56;;;;;;;19.33;12.90;;;6.70;99.90;;;;;;4994964;28;20041;-71
2024/03/19 01:05:23;;;;;;;15.38;9.88;;;6.70;99.90;;;;;;5011511;28;20034;-71
2024/03/19 01:07:49;;;;;;;18.83;13.73;;;6.70;99.90;;;;;;4978850;28;20426;-72
2024/03/19 01:10:14;;;;;;;16.33;10.75;;;6.70;99.90;;;;;;4995175;28;20045;-71
2024/03/19 01:12:41;;;;;;;17.33;11.38;;;6.70;99.90;;;;;;4978953;28;20049;-72
2024/03/19 01:15:08;;;;;;;16.35;11.32;;;6.60;99.90;;;;;;5011366;28;20049;-71
2024/03/19 01:17:35;;;;;;;15.27;10.95;;;6.60;99.90;;;;;;4995253;28;20038;-71
2024/03/19 01:20:04;;;;;;;16.40;10.25;;;6.60;99.90;;;;;;4994911;28;20142;-71
2024/03/19 01:22:30;;;;;;;15.55;10.80;;;6.60;99.90;;;;;;5011365;28;20046;-71
2024/03/19 01:24:56;;;;;;;13.85;8.35;;;6.50;99.90;;;;;;5010939;28;20029;-71
2024/03/19 01:27:22;;;;;;;16.83;12.25;;;6.50;99.90;;;;;;4994874;28;20049;-72
2024/03/19 01:29:48;;;;;;;17.73;13.18;;;6.50;99.90;;;;;;4994635;28;20476;-72
2024/03/19 01:32:14;;;;;;;20.77;11.38;;;6.70;99.90;;;;;;4994872;28;20053;-74
2024/03/19 01:34:40;;;;;;;21.20;11.25;;;6.50;99.90;;;;;;5010915;28;20134;-71
2024/03/19 01:37:06;;;;;;;20.63;11.18;;;6.50;99.90;;;;;;4994900;28;20053;-71
2024/03/19 01:39:32;;;;;;;19.42;13.57;;;6.50;99.90;;;;;;5011220;28;20376;-71
2024/03/19 01:41:58;;;;;;;17.85;11.85;;;6.50;99.90;;;;;;4994611;28;20100;-71
2024/03/19 01:44:24;;;;;;;21.40;12.63;;;6.50;99.90;;;;;;4994801;28;20038;-71
2024/03/19 01:46:50;;;;;;;16.73;12.52;;;6.50;99.90;;;;;;4994643;28;20399;-71
2024/03/19 01:49:18;;;;;;;24.35;12.45;;;6.50;99.90;;;;;;4994778;28;20081;-71
2024/03/19 01:51:44;;;;;;;17.20;11.55;;;6.50;99.90;;;;;;4994646;28;20046;-71
2024/03/19 01:54:11;;;;;;;20.25;12.77;;;6.50;99.90;;;;;;4994740;28;20057;-71
2024/03/19 01:56:38;;;;;;;20.55;13.32;;;6.50;99.90;;;;;;4994654;28;20092;-71
2024/03/19 01:59:04;;;;;;;17.20;11.27;;;6.50;99.90;;;;;;4996727;28;20091;-71
2024/03/19 02:01:30;;;;;;;18.55;12.05;;;6.50;99.90;;;;;;4998693;28;20054;-71
2024/03/19 02:03:56;;;;;;;16.23;12.55;;;6.50;99.90;;;;;;4998156;28;20041;-71
2024/03/19 02:06:22;;;;;;;18.00;11.40;;;6.50;99.90;;;;;;5014516;28;20522;-71
2024/03/19 02:09:14;;;;;;;17.88;12.30;;;6.50;99.90;;;;;;4981731;28;20050;-71
2024/03/19 02:11:40;;;;;;;20.55;11.40;;;6.50;99.90;;;;;;4998099;28;20057;-71
2024/03/19 02:14:07;;;;;;;23.10;15.60;;;6.40;99.90;;;;;;4998442;28;20056;-71
2024/03/19 02:16:36;;;;;;;22.75;13.27;;;6.50;99.90;;;;;;4998137;28;20053;-71
2024/03/19 02:19:04;;;;;;;23.60;12.65;;;6.50;99.90;;;;;;4981627;28;20046;-71
2024/03/19 02:21:32;;;;;;;24.38;13.40;;;6.50;99.90;;;;;;5014394;28;20046;-71
2024/03/19 02:23:59;;;;;;;22.60;13.38;;;6.50;99.90;;;;;;4997604;28;20495;-71
2024/03/19 02:26:29;;;;;;;29.08;14.70;;;6.60;99.90;;;;;;4997853;28;20042;-71
2024/03/19 02:29:00;;;;;;;27.33;15.57;;;6.60;99.90;;;;;;4986638;28;20035;-71
2024/03/19 02:31:28;;;;;;;18.23;11.50;;;6.70;99.90;;;;;;4993899;28;20050;-71
2024/03/19 02:33:57;;;;;;;22.40;14.48;;;6.70;99.90;;;;;;4993886;28;20469;-71
2024/03/19 02:36:24;;;;;;;13.75;10.85;;;6.80;99.90;;;;;;5026588;28;20134;-71
2024/03/19 02:38:51;;;;;;;23.45;13.82;;;6.90;99.90;;;;;;5040304;28;20061;-71
2024/03/19 02:41:17;;;;;;;30.00;16.27;;;6.90;99.90;;;;;;5030271;28;20046;-71
2024/03/19 02:43:43;;;;;;;27.73;14.93;;;7.00;99.90;;;;;;5013563;28;20049;-71
2024/03/19 02:46:09;;;;;;;25.50;13.50;;;7.00;99.90;;;;;;5013816;28;20069;-71
2024/03/19 02:48:35;;;;;;;29.00;16.17;;;7.10;99.90;;;;;;5013967;28;20073;-71
2024/03/19 02:51:02;;;;;;;34.45;17.88;;;7.20;99.90;;;;;;4997362;28;20040;-71
2024/03/19 02:53:28;;;;;;;20.80;14.70;;;7.20;99.90;;;;;;5013930;28;20403;-71
2024/03/19 02:55:55;;;;;;;27.17;14.80;;;7.20;99.90;;;;;;5013553;28;20049;-72
2024/03/19 02:58:22;;;;;;;31.70;16.50;;;7.20;99.90;;;;;;5013509;28;20053;-71
2024/03/19 03:00:49;;;;;;;26.48;14.45;;;7.30;99.90;;;;;;5013285;28;20049;-71
2024/03/19 03:03:15;;;;;;;31.58;17.73;;;7.50;99.90;;;;;;5013728;28;20096;-71
2024/03/19 03:05:45;;;;;;;19.40;11.38;;;7.30;99.90;;;;;;5030004;28;20038;-72
2024/03/19 03:08:11;;;;;;;34.05;19.23;;;7.40;99.90;;;;;;5029767;28;20407;-71
2024/03/19 03:10:38;;;;;;;25.60;15.68;;;7.40;99.90;;;;;;5028536;28;20037;-71
2024/03/19 03:13:04;;;;;;;20.05;12.50;;;7.40;99.90;;;;;;5013190;28;20038;-71
2024/03/19 03:15:30;;;;;;;25.52;14.30;;;7.40;99.90;;;;;;5029583;28;20050;-71
2024/03/19 03:17:56;;;;;;;31.10;18.38;;;7.40;99.90;;;;;;5013207;28;20042;-71
2024/03/19 03:20:23;;;;;;;19.77;12.85;;;7.50;99.90;;;;;;5013207;28;20050;-71
2024/03/19 03:22:49;;;;;;;21.10;14.18;;;7.40;99.90;;;;;;5013049;28;20061;-71
2024/03/19 03:25:15;;;;;;;16.65;12.63;;;7.40;99.90;;;;;;4996545;28;20057;-71
2024/03/19 03:27:42;;;;;;;18.00;12.32;;;7.40;99.90;;;;;;5013082;28;20046;-71
2024/03/19 03:30:13;;;;;;;17.15;10.52;;;7.30;99.90;;;;;;5012559;28;20046;-72
2024/03/19 03:32:41;;;;;;;17.88;11.13;;;7.30;99.90;;;;;;5013028;28;20103;-71
2024/03/19 03:35:10;;;;;;;26.17;16.27;;;7.30;99.90;;;;;;5012763;28;20033;-71
2024/03/19 03:37:37;;;;;;;27.20;18.08;;;7.30;99.90;;;;;;5013044;28;20046;-71
2024/03/19 03:40:21;;;;;;;33.38;19.50;;;7.30;99.90;;;;;;5012734;28;20045;-71
2024/03/19 03:42:50;;;;;;;20.05;13.68;;;7.30;99.90;;;;;;5029319;28;20054;-71
2024/03/19 03:45:19;;;;;;;28.95;16.20;;;7.30;99.90;;;;;;5029051;28;20046;-71
2024/03/19 03:47:45;;;;;;;22.00;14.57;;;7.30;99.90;;;;;;5012678;28;20053;-71
2024/03/19 03:50:13;;;;;;;30.08;18.00;;;7.30;99.90;;;;;;5045496;28;20046;-71
2024/03/19 03:52:39;;;;;;;16.45;10.13;;;7.30;99.90;;;;;;5012668;28;20034;-71
2024/03/19 03:55:07;;;;;;;28.42;22.42;;;7.40;99.90;;;;;;5029108;28;20454;-71
2024/03/19 03:57:35;;;;;;;12.05;9.25;;;7.40;99.90;;;;;;5012476;28;20499;-71
2024/03/19 04:00:08;;;;;;;24.33;16.00;;;7.50;99.90;;;;;;5028648;28;20061;-71
2024/03/19 04:02:44;;;;;;;20.27;13.93;;;7.40;99.90;;;;;;5024640;28;20100;-71
2024/03/19 04:05:11;;;;;;;26.33;16.45;;;7.40;99.90;;;;;;4975235;28;20305;-71
2024/03/19 04:07:39;;;;;;;28.40;20.10;;;7.40;99.90;;;;;;5025103;28;20389;-71
2024/03/19 04:10:10;;;;;;;24.40;14.45;;;7.60;99.90;;;;;;4992617;28;20038;-72
2024/03/19 04:12:36;;;;;;;;;;;7.50;99.90;;;;;;4993269;28;20558;-71
2024/03/19 04:15:03;;;;;;;22.83;14.90;;;7.50;99.90;;;;;;5008919;28;19925;-71
2024/03/19 04:17:29;;;;;;;24.33;12.40;;;7.50;99.90;;;;;;4992603;28;20057;-71
2024/03/19 04:19:55;;;;;;;31.02;17.27;;;7.60;99.90;;;;;;4976538;28;20559;-71
2024/03/19 04:22:21;;;;;;;18.73;10.90;;;7.80;99.90;;;;;;4975698;28;20053;-71
2024/03/19 04:24:48;;;;;;;23.98;16.27;;;7.60;99.90;;;;;;4992718;28;20042;-72
2024/03/19 04:27:14;;;;;;;23.55;13.73;;;7.60;99.90;;;;;;5008361;28;20104;-71
2024/03/19 04:29:41;;;;;;;25.02;16.08;;;7.60;99.90;;;;;;4976399;28;20038;-72
2024/03/19 04:32:07;;;;;;;20.33;13.48;;;7.60;99.90;;;;;;4976119;28;20046;-71
2024/03/19 04:34:33;;;;;;;12.30;6.55;;;7.80;99.90;;;;;;4992347;28;20050;-71
2024/03/19 04:36:59;;;;;;;27.75;17.30;;;7.70;99.90;;;;;;4976137;28;20054;-71
2024/03/19 04:39:26;;;;;;;31.27;19.33;;;7.60;99.90;;;;;;4992252;28;20081;-71
2024/03/19 04:41:52;;;;;;;24.60;17.58;;;7.70;99.90;;;;;;4992265;28;20411;-71
2024/03/19 04:44:18;;;;;;;23.67;14.07;;;7.60;99.90;;;;;;4991970;28;20034;-71
2024/03/19 04:46:45;;;;;;;23.58;15.43;;;7.70;99.90;;;;;;5008672;28;20046;-71
2024/03/19 04:49:11;;;;;;;21.80;14.45;;;7.70;99.90;;;;;;4992038;28;20050;-71
2024/03/19 04:51:38;;;;;;;27.20;15.60;;;7.90;99.90;;;;;;4992101;28;20057;-71
2024/03/19 04:54:04;;;;;;;25.02;15.85;;;7.70;99.90;;;;;;4959648;28;20058;-71
2024/03/19 04:56:30;;;;;;;27.27;16.30;;;7.80;99.90;;;;;;4992087;28;20092;-71
2024/03/19 04:58:56;;;;;;;20.48;14.65;;;7.80;99.90;;;;;;4975809;28;20447;-71
2024/03/19 05:01:22;;;;;;;25.98;16.52;;;7.80;99.90;;;;;;5008087;28;20047;-71
2024/03/19 05:03:49;;;;;;;21.17;11.70;;;7.80;99.90;;;;;;4975656;28;20141;-71
2024/03/19 05:06:15;;;;;;;20.25;12.88;;;7.80;99.90;;;;;;5007982;28;20049;-71
2024/03/19 05:08:42;;;;;;;23.00;13.73;;;8.00;99.90;;;;;;5008278;28;20043;-71
2024/03/19 05:11:08;;;;;;;20.63;12.15;;;7.80;99.90;;;;;;4991636;28;20093;-71
2024/03/19 05:13:34;;;;;;;27.83;17.45;;;7.90;99.90;;;;;;4975751;28;20404;-71
2024/03/19 05:16:00;;;;;;;25.13;14.77;;;7.90;99.90;;;;;;4975736;28;20485;-71
2024/03/19 05:18:27;;;;;;;29.70;18.65;;;7.90;99.90;;;;;;4975522;28;20412;-71
2024/03/19 05:20:53;;;;;;;5.97;4.97;;;7.90;99.90;;;;;;4975533;28;20484;-71
2024/03/19 05:23:19;;;;;;;25.70;14.80;;;8.00;99.90;;;;;;5007686;28;20050;-71
2024/03/19 05:25:45;;;;;;;34.28;18.02;;;8.00;99.90;;;;;;4991718;28;20038;-71
2024/03/19 05:28:11;;;;;;;26.17;16.38;;;8.00;99.90;;;;;;4975298;28;20057;-71
2024/03/19 05:30:37;;;;;;;24.83;16.15;;;8.10;99.90;;;;;;5007817;28;20101;-71
2024/03/19 05:33:04;;;;;;;33.22;17.27;;;8.10;99.90;;;;;;4992200;28;20042;-71
2024/03/19 05:35:30;;;;;;;23.50;14.80;;;8.10;99.90;;;;;;4995560;28;20108;-71
2024/03/19 05:37:56;;;;;;;12.95;9.95;;;8.10;99.90;;;;;;4995552;28;20054;-71
2024/03/19 05:40:22;;;;;;;35.03;16.20;;;8.10;99.90;;;;;;4995287;28;20133;-71
2024/03/19 05:42:48;;;;;;;29.58;17.60;;;8.10;99.90;;;;;;4995585;28;20467;-71
2024/03/19 05:45:14;;;;;;;24.15;14.00;;;8.10;99.90;;;;;;4995129;28;20486;-71
2024/03/19 05:47:40;;;;;;;23.73;17.88;;;8.10;99.90;;;;;;4995342;28;20404;-71
2024/03/19 05:50:10;;;;;;;28.52;15.77;;;8.20;99.90;;;;;;4995447;28;20042;-71
2024/03/19 05:52:38;;;;;;;18.23;10.93;;;8.20;99.90;;;;;;5011698;28;20053;-71
2024/03/19 05:55:04;;;;;;;32.15;18.63;;;8.20;99.90;;;;;;4995234;28;20054;-71
2024/03/19 05:57:30;;;;;;;31.20;20.95;;;8.10;99.90;;;;;;4995294;28;20373;-71
2024/03/19 05:59:56;;;;;;;25.88;15.98;;;8.20;99.90;;;;;;5011361;28;20050;-71
2024/03/19 06:02:22;;;;;;;32.05;18.23;;;8.20;99.90;;;;;;4992878;28;20039;-72
2024/03/19 06:04:48;;;;;;;30.27;16.77;;;8.20;99.90;;;;;;4978040;28;20050;-71
2024/03/19 06:07:14;;;;;;;26.45;17.48;;;8.20;99.90;;;;;;4994454;28;20097;-71
2024/03/19 06:09:47;;;;;;;33.17;18.33;;;8.20;99.90;;;;;;4995064;28;20046;-71
2024/03/19 06:12:13;;;;;;;27.27;16.02;;;8.20;99.90;;;;;;4979529;28;20042;-71
2024/03/19 06:14:40;;;;;;;31.00;17.48;;;8.20;99.90;;;;;;4978665;28;20046;-72
2024/03/19 06:17:06;;;;;;;28.65;17.45;;;8.30;99.90;;;;;;4978587;28;20050;-71
2024/03/19 06:19:33;;;;;;;33.97;19.25;;;8.30;99.90;;;;;;4994975;28;20050;-71
2024/03/19 06:21:59;;;;;;;31.75;19.08;;;8.30;99.90;;;;;;4994898;28;20567;-71
2024/03/19 06:24:26;;;;;;;21.40;13.10;;;8.40;99.90;;;;;;5010711;28;20038;-71
2024/03/19 06:26:52;;;;;;;26.58;15.88;;;8.40;99.90;;;;;;4994810;28;20064;-71
2024/03/19 06:29:18;;;;;;;24.90;16.02;;;8.40;99.90;;;;;;4978267;28;20572;-71
2024/03/19 06:31:44;;;;;;;28.33;17.77;;;8.40;99.90;;;;;;4978218;28;20546;-71
2024/03/19 06:34:10;;;;;;;30.17;16.95;;;8.50;99.90;;;;;;5010867;28;20491;-72
2024/03/19 06:36:38;;;;;;;18.10;11.82;;;8.50;99.90;;;;;;4994129;28;20065;-71
2024/03/19 06:39:04;;;;;;;27.42;17.95;;;8.50;99.90;;;;;;4977829;28;20089;-71
2024/03/19 06:41:34;;;;;;;27.92;16.75;;;8.50;99.90;;;;;;4993919;28;20054;-71
2024/03/19 06:44:01;;;;;;;31.17;17.33;;;8.50;99.90;;;;;;4962121;28;20047;-72
2024/03/19 06:46:27;;;;;;;20.25;13.80;;;8.50;99.90;;;;;;4994211;28;20066;-72
2024/03/19 06:48:53;;;;;;;17.63;12.32;;;8.60;99.90;;;;;;4994434;28;20042;-71
2024/03/19 06:51:19;;;;;;;17.17;9.75;;;8.60;99.90;;;;;;4977827;28;20062;-72
2024/03/19 06:53:45;;;;;;;32.13;16.73;;;8.70;99.90;;;;;;4994134;28;20057;-71
2024/03/19 06:56:11;;;;;;;14.93;8.57;;;8.70;99.90;;;;;;4978051;28;20064;-71
2024/03/19 06:58:37;;;;;;;20.73;13.18;;;8.80;99.90;;;;;;4994172;28;20051;-72
2024/03/19 07:01:04;;;;;;;15.13;10.60;;;8.80;99.90;;;;;;4994131;28;20050;-72
2024/03/19 07:03:30;;;;;;;18.40;11.73;;;8.90;99.90;;;;;;4993661;28;20049;-72
2024/03/19 07:05:57;;;;;;;25.65;15.18;;;9.10;99.90;;;;;;4994199;28;20038;-71
2024/03/19 07:08:26;;;;;;;20.55;13.30;;;9.00;99.90;;;;;;4993468;28;20054;-71
2024/03/19 07:10:53;;;;;;;28.38;16.17;;;9.10;99.90;;;;;;4977744;28;20077;-71
2024/03/19 07:13:19;;;;;;;29.52;17.52;;;9.30;99.90;;;;;;4993772;28;20100;-72
2024/03/19 07:15:45;;;;;;;18.63;10.98;;;9.40;99.90;;;;;;4977590;28;20042;-72
2024/03/19 07:18:12;;;;;;;23.80;15.68;;;9.50;99.90;;;;;;4977545;28;20496;-71
2024/03/19 07:20:39;;;;;;;19.70;13.05;;;9.60;99.90;;;;;;4961336;28;20521;-71
2024/03/19 07:23:05;;;;;;;23.17;12.40;;;9.70;99.90;;;;;;4977696;28;20050;-71
2024/03/19 07:25:32;;;;;;;26.23;14.85;;;9.80;99.90;;;;;;4977258;28;20081;-71
2024/03/19 07:27:59;;;;;;;24.88;12.43;;;10.00;99.90;;;;;;4977303;28;20045;-72
2024/03/19 07:30:26;;;;;;;21.38;12.85;;;10.00;99.90;;;;;;4977160;28;20050;-72
2024/03/19 07:32:55;;;;;;;18.85;11.27;;;10.10;99.90;;;;;;4977445;28;20400;-72
2024/03/19 07:35:22;;;;;;;21.30;11.18;;;10.10;99.90;;;;;;4977260;28;20050;-71
2024/03/19 07:37:49;;;;;;;28.50;14.15;;;10.20;99.90;;;;;;4993175;28;20485;-71
2024/03/19 07:40:20;;;;;;;13.68;10.18;;;10.20;99.90;;;;;;4993393;28;20042;-72
2024/03/19 07:42:50;;;;;;;21.42;11.45;;;10.40;99.90;;;;;;4961383;28;20589;-71
2024/03/19 07:45:16;;;;;;;17.52;11.43;;;10.60;99.90;;;;;;4993302;28;20050;-71
2024/03/19 07:47:43;;;;;;;17.85;9.70;;;10.80;99.90;;;;;;4992873;28;20427;-71
2024/03/19 07:50:10;;;;;;;24.98;13.23;;;11.00;99.90;;;;;;4976862;28;20054;-72
2024/03/19 07:52:37;;;;;;;21.33;11.98;;;11.20;99.90;;;;;;4976831;28;20038;-71
2024/03/19 07:55:04;;;;;;;17.65;10.95;;;11.40;99.90;;;;;;4993042;28;20050;-72
2024/03/19 07:57:30;;;;;;;16.38;10.13;;;11.80;99.90;;;;;;4976046;28;20046;-72
2024/03/19 07:59:58;;;;;;;19.80;12.27;;;12.10;99.90;;;;;;4976825;28;20065;-72
2024/03/19 08:02:24;;;;;;;21.02;13.48;;;12.20;99.90;;;;;;4992914;28;20042;-71
2024/03/19 08:04:50;;;;;;;20.83;12.25;;;12.20;99.90;;;;;;4992696;28;20038;-72
2024/03/19 08:07:17;;;;;;;20.48;12.25;;;12.30;99.90;;;;;;4976689;28;20047;-72
2024/03/19 08:09:45;;;;;;;14.27;9.05;;;12.50;99.90;;;;;;4976486;28;20035;-73
2024/03/19 08:12:11;;;;;;;17.35;10.90;;;12.90;99.90;;;;;;4992944;28;20057;-72
2024/03/19 08:14:37;;;;;;;18.42;11.85;;;13.20;99.90;;;;;;4992480;28;20444;-72
2024/03/19 08:17:03;;;;;;;15.57;8.70;;;13.20;99.90;;;;;;4976640;28;20050;-72
2024/03/19 08:19:30;;;;;;;17.35;10.55;;;13.30;99.90;;;;;;4976492;28;20050;-72
2024/03/19 08:21:56;;;;;;;16.98;9.65;;;13.30;99.90;;;;;;4976248;28;20511;-72
2024/03/19 08:24:22;;;;;;;15.07;10.25;;;13.40;99.90;;;;;;4976211;28;20038;-71
2024/03/19 08:26:48;;;;;;;10.93;7.10;;;13.40;99.90;;;;;;4992355;28;20387;-71
2024/03/19 08:29:14;;;;;;;14.48;8.32;;;13.40;99.90;;;;;;4976593;28;20058;-71
2024/03/19 08:31:41;;;;;;;11.32;7.40;;;13.20;99.90;;;;;;4992241;28;20066;-72
2024/03/19 08:34:08;;;;;;;10.55;7.85;;;13.10;99.90;;;;;;4976297;28;20034;-72
2024/03/19 08:36:34;;;;;;;14.35;7.82;;;13.00;99.90;;;;;;4959894;28;20046;-71
2024/03/19 08:39:00;;;;;;;15.50;9.00;;;12.80;99.90;;;;;;4992308;28;20050;-72
2024/03/19 08:41:26;;;;;;;11.57;7.15;;;12.80;99.90;;;;;;4992110;28;20053;-71
2024/03/19 08:43:52;;;;;;;12.77;8.05;;;12.70;99.90;;;;;;4975851;28;20065;-72
2024/03/19 08:46:21;;;;;;;15.38;7.90;;;12.50;99.90;;;;;;4992150;28;20043;-72
2024/03/19 08:48:48;;;;;;;13.85;9.07;;;12.50;99.90;;;;;;4991843;28;20038;-72
2024/03/19 08:51:14;;;;;;;19.05;11.68;;;12.40;99.90;;;;;;4992232;28;20404;-72
2024/03/19 08:53:42;;;;;;;14.18;8.02;;;12.40;99.90;;;;;;4975730;28;20034;-72
2024/03/19 08:56:08;;;;;;;13.90;8.77;;;12.40;99.90;;;;;;4976004;28;20038;-72
2024/03/19 08:58:36;;;;;;;11.50;7.60;;;12.40;99.90;;;;;;4991936;28;20038;-72
2024/03/19 09:01:02;;;;;;;10.45;6.03;;;12.40;99.90;;;;;;4975754;28;20042;-72
2024/03/19 09:03:28;;;;;;;10.23;6.53;;;12.40;99.90;;;;;;4959700;28;20097;-71
2024/03/19 09:05:58;;;;;;;13.15;8.20;;;12.40;99.90;;;;;;4975369;28;20046;-72
2024/03/19 09:08:25;;;;;;;12.95;6.63;;;12.30;99.90;;;;;;4991928;28;20535;-72
2024/03/19 09:10:53;;;;;;;12.70;7.80;;;12.30;99.90;;;;;;4975386;28;20054;-72
2024/03/19 09:13:19;;;;;;;12.30;7.55;;;12.40;99.90;;;;;;4975627;28;20046;-72
2024/03/19 09:15:48;;;;;;;11.25;6.78;;;12.40;99.90;;;;;;4991564;28;20057;-72
2024/03/19 09:18:15;;;;;;;16.90;8.75;;;12.40;99.90;;;;;;4975559;28;20084;-72
2024/03/19 09:20:42;;;;;;;13.10;5.72;;;12.50;99.90;;;;;;4991491;28;20054;-72
2024/03/19 09:23:08;;;;;;;11.77;6.90;;;12.60;99.90;;;;;;4991752;28;20046;-72
2024/03/19 09:25:34;;;;;;;8.68;7.05;;;12.50;99.90;;;;;;4991759;28;20403;-72
2024/03/19 09:28:01;;;;;;;10.18;6.90;;;12.60;99.90;;;;;;4975359;28;20049;-72
2024/03/19 09:30:27;;;;;;;11.82;7.25;;;12.60;99.90;;;;;;4991603;28;20047;-72
2024/03/19 09:32:53;;;;;;;9.75;6.22;;;12.60;99.90;;;;;;4991527;28;20057;-72
2024/03/19 09:35:20;;;;;;;14.82;6.95;;;12.70;99.90;;;;;;4991792;28;20500;-71
2024/03/19 09:37:46;;;;;;;10.82;7.65;;;12.80;99.90;;;;;;4975378;28;20042;-72
2024/03/19 09:40:14;;;;;;;14.20;6.30;;;12.90;99.90;;;;;;4991705;28;20042;-72
2024/03/19 09:42:41;;;;;;;13.07;8.10;;;12.90;99.90;;;;;;4991487;28;20416;-72
2024/03/19 09:45:26;;;;;;;15.15;7.50;;;13.10;99.90;;;;;;4991475;28;20053;-72
2024/03/19 09:47:55;;;;;;;11.20;8.15;;;13.20;99.90;;;;;;4991544;28;20436;-71
2024/03/19 09:50:22;;;;;;;9.55;5.20;;;13.40;99.90;;;;;;4991584;28;20043;-72
2024/03/19 09:52:55;;;;;;;10.25;5.97;;;13.60;99.90;;;;;;4991315;28;20039;-72
2024/03/19 09:55:25;;;;;;;6.00;4.47;;;13.70;99.90;;;;;;4991464;28;20065;-72
2024/03/19 09:57:53;;;;;;;6.60;5.95;;;13.80;99.90;;;;;;4975146;28;20065;-72
2024/03/19 10:00:26;;;;;;;5.40;4.13;;;14.00;99.90;;;;;;4975021;28;20126;-72
2024/03/19 10:02:54;;;;;;;8.27;4.78;;;14.20;99.90;;;;;;4991270;28;20050;-72
2024/03/19 10:05:22;;;;;;;6.45;5.85;;;14.40;99.90;;;;;;4975199;28;20395;-72
2024/03/19 10:07:51;;;;;;;9.43;4.55;;;14.70;99.90;;;;;;4974950;28;20057;-72
2024/03/19 10:10:18;;;;;;;8.80;5.55;;;15.00;99.90;;;;;;4975124;28;20038;-72
2024/03/19 10:12:44;;;;;;;7.97;5.45;;;15.10;99.90;;;;;;4975103;28;20440;-72
2024/03/19 10:15:18;;;;;;;6.40;3.75;;;15.20;99.90;;;;;;4991340;28;20047;-72
2024/03/19 10:17:46;;;;;;;9.15;5.72;;;15.20;99.90;;;;;;4991238;28;20104;-72
2024/03/19 10:20:14;;;;;;;7.13;4.70;;;15.30;99.90;;;;;;4993401;28;20046;-72
2024/03/19 10:22:41;;;;;;;6.35;4.60;;;15.40;99.90;;;;;;4994885;28;20096;-72
2024/03/19 10:25:08;;;;;;;7.38;4.00;;;15.50;99.40;;;;;;4994688;28;20039;-72
2024/03/19 10:27:34;;;;;;;6.13;3.22;;;15.70;99.10;;;;;;4994008;28;20047;-72
2024/03/19 10:30:02;;;;;;;6.90;3.70;;;15.90;98.20;;;;;;5009970;28;20247;-72
2024/03/19 10:32:28;;;;;;;6.68;4.88;;;16.00;97.10;;;;;;5027342;28;20055;-72
2024/03/19 10:34:58;;;;;;;7.05;3.72;;;16.10;96.80;;;;;;5010453;28;20058;-72
2024/03/19 10:37:26;;;;;;;6.10;4.75;;;16.20;97.50;;;;;;5026997;28;20419;-72
2024/03/19 10:39:53;;;;;;;3.15;2.75;;;16.30;96.30;;;;;;4993872;28;20050;-72
2024/03/19 10:42:20;;;;;;;6.55;4.40;;;16.30;96.20;;;;;;5010627;28;20467;-72
2024/03/19 10:44:46;;;;;;;5.10;3.85;;;16.40;95.90;;;;;;4994484;28;20404;-72
2024/03/19 10:47:16;;;;;;;9.30;4.57;;;16.60;95.90;;;;;;4994271;28;20038;-72
2024/03/19 10:49:43;;;;;;;4.03;3.58;;;16.80;95.40;;;;;;4994340;28;20108;-71
2024/03/19 10:52:19;;;;;;;5.60;3.42;;;17.00;94.30;;;;;;4994208;28;20096;-71
2024/03/19 10:54:47;;;;;;;7.07;3.60;;;17.20;94.50;;;;;;5010823;28;20065;-72
2024/03/19 10:57:18;;;;;;;4.90;3.47;;;17.50;93.80;;;;;;4994094;28;20042;-71
2024/03/19 10:59:44;;;;;;;5.05;2.63;;;17.40;93.70;;;;;;4993937;28;20050;-71
2024/03/19 11:02:18;;;;;;;6.72;3.65;;;17.40;93.40;;;;;;4993964;28;20054;-72
2024/03/19 11:04:55;;;;;;;3.75;2.67;;;17.30;93.70;;;;;;4993977;28;20084;-71
2024/03/19 11:07:23;;;;;;;7.10;3.70;;;17.20;93.40;;;;;;4977720;28;20104;-71
2024/03/19 11:09:53;;;;;;;6.85;4.60;;;17.10;93.40;;;;;;5010393;28;20055;-71
2024/03/19 11:12:24;;;;;;;4.13;3.25;;;17.00;93.40;;;;;;5026692;28;20057;-72
2024/03/19 11:14:55;;;;;;;11.77;3.78;;;16.80;93.50;;;;;;4993890;28;20034;-71
2024/03/19 11:17:26;;;;;;;3.28;2.60;;;16.70;92.90;;;;;;5010089;28;20046;-71
2024/03/19 11:19:54;;;;;;;3.38;2.67;;;16.60;93.50;;;;;;5009912;28;20046;-71
2024/03/19 11:22:20;;;;;;;5.03;3.88;;;16.50;93.30;;;;;;4993744;28;20038;-72
2024/03/19 11:24:50;;;;;;;4.57;3.67;;;16.60;93.80;;;;;;4993682;28;20038;-71
2024/03/19 11:27:20;;;;;;;3.05;2.72;;;16.70;93.20;;;;;;4993459;28;20080;-71
2024/03/19 11:29:49;;;;;;;4.13;2.72;;;16.80;93.10;;;;;;5009360;28;20101;-71
2024/03/19 11:32:27;;;;;;;3.65;2.47;;;17.00;93.00;;;;;;4992447;28;20085;-71
2024/03/19 11:34:54;;;;;;;3.00;2.40;;;17.30;92.80;;;;;;4993502;28;20047;-71
2024/03/19 11:37:20;;;;;;;5.63;2.80;;;17.50;91.80;;;;;;4993382;28;20038;-72
2024/03/19 11:39:48;;;;;;;2.97;2.35;;;17.60;91.80;;;;;;5026182;28;20046;-71
2024/03/19 11:42:15;;;;;;;2.83;1.92;;;17.70;92.00;;;;;;5025875;28;20068;-71
2024/03/19 11:44:42;;;;;;;4.90;2.33;;;18.10;91.10;;;;;;4993131;28;20042;-71
2024/03/19 11:47:09;;;;;;;5.65;3.78;;;18.20;90.50;;;;;;4993023;28;20050;-71
2024/03/19 11:49:35;;;;;;;5.05;2.63;;;18.10;90.30;;;;;;4993119;28;20069;-71
2024/03/19 11:52:04;;;;;;;4.07;2.83;;;18.10;90.20;;;;;;4992968;28;20496;-72
2024/03/19 11:54:38;;;;;;;6.15;2.70;;;18.10;89.50;;;;;;5025785;28;20046;-71
2024/03/19 11:57:04;;;;;;;2.85;2.50;;;18.10;90.30;;;;;;4992625;28;20050;-72
2024/03/19 11:59:33;;;;;;;4.18;2.17;;;18.30;90.10;;;;;;4976813;28;20046;-72
2024/03/19 12:01:59;;;;;;;4.75;3.17;;;18.30;89.00;;;;;;4992884;28;20054;-72
2024/03/19 12:04:27;;;;;;;5.53;3.92;;;18.30;88.80;;;;;;5025932;28;20053;-72
2024/03/19 12:06:53;;;;;;;3.55;2.30;;;18.20;88.20;;;;;;4992701;28;20097;-71
2024/03/19 12:09:22;;;;;;;3.90;2.88;;;17.90;89.50;;;;;;4992810;28;20034;-71
2024/03/19 12:11:49;;;;;;;5.47;3.03;;;17.80;90.00;;;;;;4992910;28;20101;-72
2024/03/19 12:14:16;;;;;;;5.18;2.42;;;17.70;90.10;;;;;;4992545;28;20097;-71
2024/03/19 12:16:44;;;;;;;3.33;2.88;;;17.90;90.10;;;;;;5009096;28;20046;-72
2024/03/19 12:19:12;;;;;;;3.85;2.47;;;18.30;89.20;;;;;;4992315;28;20046;-71
2024/03/19 12:21:43;;;;;;;5.00;2.92;;;18.60;88.00;;;;;;4992471;28;20038;-71
2024/03/19 12:24:17;;;;;;;4.63;3.25;;;18.70;88.70;;;;;;4992062;28;20046;-72
2024/03/19 12:26:46;;;;;;;3.47;2.55;;;18.60;87.60;;;;;;4992469;28;20069;-72
2024/03/19 12:29:14;;;;;;;3.83;2.17;;;18.30;87.90;;;;;;5025154;28;20042;-71
2024/03/19 12:37:26;;;;;;;2.88;2.53;;;17.70;89.80;;;;;;4967798;28;20058;-71
2024/03/19 12:39:52;;;;;;;7.47;3.03;;;17.60;90.10;;;;;;4992442;28;20053;-71
2024/03/19 12:42:18;;;;;;;3.20;2.20;;;17.50;89.10;;;;;;4991846;28;20570;-71
2024/03/19 12:44:46;;;;;;;3.00;2.53;;;17.40;90.30;;;;;;4992402;28;20113;-72